createdAt,value
2018-07-17T18:37:08.184Z,13.53
2018-07-17T18:39:38.353Z,12.58
2018-07-17T18:42:08.810Z,11.97
2018-07-17T18:44:38.966Z,12.80
2018-07-17T18:47:08.653Z,12.23
2018-07-17T18:49:38.819Z,12.10
2018-07-17T18:52:09.397Z,12.37
2018-07-17T18:54:39.618Z,11.67
2018-07-17T18:57:09.890Z,12.60
2018-07-17T18:59:40.215Z,11.60
2018-07-17T19:02:10.286Z,12.17
2018-07-17T19:04:40.539Z,12.73
2018-07-17T19:07:10.685Z,12.83
2018-07-17T19:09:40.941Z,13.30
2018-07-17T19:12:11.186Z,13.70
2018-07-17T19:14:41.474Z,13.10
2018-07-17T19:17:11.797Z,12.83
2018-07-17T19:19:41.998Z,13.07
2018-07-17T19:22:12.173Z,13.83
2018-07-17T19:24:42.487Z,12.90
2018-07-17T19:27:12.634Z,12.67
2018-07-17T19:29:42.844Z,13.40
2018-07-17T19:32:13.537Z,13.47
2018-07-17T19:34:43.720Z,14.07
2018-07-17T19:37:13.905Z,13.67
2018-07-17T19:39:44.213Z,14.47
2018-07-17T19:42:14.361Z,14.03
2018-07-17T19:44:44.652Z,13.83
2018-07-17T19:47:14.969Z,14.77
2018-07-17T19:49:45.231Z,15.53
2018-07-17T19:52:15.558Z,13.83
2018-07-17T19:54:45.993Z,13.73
2018-07-17T19:57:16.214Z,14.53
2018-07-17T19:59:46.468Z,13.63
2018-07-17T20:02:16.668Z,12.40
2018-07-17T20:04:46.828Z,13.30
2018-07-17T20:07:16.981Z,13.23
2018-07-17T20:09:47.206Z,12.83
2018-07-17T20:12:17.712Z,12.13
2018-07-17T20:14:48.043Z,13.97
2018-07-17T20:17:18.604Z,12.43
2018-07-17T20:19:48.792Z,11.83
2018-07-17T20:22:18.940Z,11.57
2018-07-17T20:24:49.157Z,11.57
2018-07-17T20:27:19.291Z,10.37
2018-07-17T20:29:49.474Z,10.53
2018-07-17T20:32:19.725Z,9.50
2018-07-17T20:34:49.893Z,7.57
2018-07-17T20:37:20.017Z,6.87
2018-07-17T20:39:50.181Z,6.53
2018-07-17T20:42:20.269Z,5.93
2018-07-17T20:44:50.530Z,4.90
2018-07-17T20:47:20.661Z,3.97
2018-07-17T20:49:51.418Z,3.93
2018-07-17T20:52:21.672Z,4.90
2018-07-17T20:54:52.001Z,4.93
2018-07-17T20:57:22.485Z,6.10
2018-07-17T20:59:52.820Z,8.63
2018-07-17T21:02:22.925Z,9.80
2018-07-17T21:04:53.148Z,11.43
2018-07-17T21:07:23.330Z,12.23
2018-07-17T21:09:53.614Z,13.67
2018-07-17T21:12:23.724Z,14.47
2018-07-17T21:14:53.897Z,16.80
2018-07-17T21:17:24.109Z,16.60
2018-07-17T21:19:54.257Z,16.63
2018-07-17T21:22:24.467Z,15.60
2018-07-17T21:24:54.617Z,15.20
2018-07-17T21:27:24.793Z,16.23
2018-07-17T21:29:54.926Z,16.80
2018-07-17T21:32:25.025Z,15.83
2018-07-17T21:34:55.208Z,16.80
2018-07-17T21:37:25.418Z,12.97
2018-07-17T21:39:55.576Z,17.73
2018-07-17T21:42:25.738Z,15.67
2018-07-17T21:44:55.865Z,19.33
2018-07-17T21:47:26.021Z,16.17
2018-07-17T21:49:56.193Z,17.20
2018-07-17T21:52:26.302Z,18.47
2018-07-17T21:54:56.488Z,17.73
2018-07-17T21:57:26.577Z,15.93
2018-07-17T21:59:56.705Z,17.10
2018-07-17T22:02:27.065Z,15.00
2018-07-17T22:04:57.253Z,13.83
2018-07-17T22:07:27.349Z,13.67
2018-07-17T22:09:57.613Z,14.13
2018-07-17T22:12:27.697Z,15.23
2018-07-17T22:14:57.832Z,13.27
2018-07-17T22:17:28.277Z,15.43
2018-07-17T22:19:58.400Z,14.67
2018-07-17T22:22:28.500Z,17.00
2018-07-17T22:24:58.760Z,16.27
2018-07-17T22:27:28.856Z,17.53
2018-07-17T22:29:59.086Z,16.30
2018-07-17T22:32:29.173Z,18.90
2018-07-17T22:34:59.305Z,17.63
2018-07-17T22:37:29.396Z,18.43
2018-07-17T22:39:59.621Z,16.83
2018-07-17T22:42:29.732Z,18.17
2018-07-17T22:44:59.850Z,16.77
2018-07-17T22:47:29.928Z,15.63
2018-07-17T22:50:00.513Z,15.60
2018-07-17T22:52:30.601Z,16.63
2018-07-17T22:55:01.222Z,15.67
2018-07-17T22:57:31.300Z,16.03
2018-07-17T23:00:01.617Z,16.17
2018-07-17T23:02:31.725Z,16.60
2018-07-17T23:05:01.866Z,16.53
2018-07-17T23:07:31.971Z,16.50
2018-07-17T23:10:02.130Z,16.80
2018-07-17T23:12:32.500Z,17.00
2018-07-17T23:15:02.634Z,17.70
2018-07-17T23:17:32.736Z,17.63
2018-07-17T23:20:02.873Z,18.87
2018-07-17T23:22:54.313Z,19.17
2018-07-17T23:25:25.499Z,18.17
2018-07-17T23:27:56.633Z,18.40
2018-07-17T23:30:26.805Z,18.80
2018-07-17T23:32:56.916Z,20.20
2018-07-17T23:35:27.165Z,18.43
2018-07-17T23:37:57.297Z,20.23
2018-07-17T23:40:27.489Z,19.00
2018-07-17T23:42:57.580Z,19.33
2018-07-17T23:45:27.717Z,20.37
2018-07-17T23:47:58.148Z,21.17
2018-07-17T23:50:28.305Z,19.37
2018-07-17T23:52:58.397Z,20.10
2018-07-17T23:55:28.535Z,18.93
2018-07-17T23:57:58.617Z,17.20
